sensor_id;sensor_type;location;lat;lon;timestamp;pressure;altitude;pressure_sealevel;temperature;humidity
71966;BME280;59836;52.132;5.442;2023-08-06T00:00:54;100483.00;;;15.24;100.00
71966;BME280;59836;52.132;5.442;2023-08-06T00:03:22;100484.63;;;15.25;100.00
71966;BME280;59836;52.132;5.442;2023-08-06T00:05:50;100471.25;;;15.24;100.00
71966;BME280;59836;52.132;5.442;2023-08-06T00:08:16;100474.31;;;15.22;100.00
71966;BME280;59836;52.132;5.442;2023-08-06T00:10:43;100480.28;;;15.24;100.00
71966;BME280;59836;52.132;5.442;2023-08-06T00:13:18;100475.94;;;15.23;100.00
71966;BME280;59836;52.132;5.442;2023-08-06T00:15:45;100469.97;;;15.21;100.00
71966;BME280;59836;52.132;5.442;2023-08-06T00:18:12;100472.69;;;15.21;100.00
71966;BME280;59836;52.132;5.442;2023-08-06T00:20:47;100468.84;;;15.22;100.00
71966;BME280;59836;52.132;5.442;2023-08-06T00:23:28;100474.31;;;15.22;100.00
71966;BME280;59836;52.132;5.442;2023-08-06T00:25:57;100471.88;;;15.20;100.00
71966;BME280;59836;52.132;5.442;2023-08-06T00:28:38;100472.69;;;15.21;100.00
71966;BME280;59836;52.132;5.442;2023-08-06T00:31:04;100471.09;;;15.20;100.00
71966;BME280;59836;52.132;5.442;2023-08-06T00:33:46;100467.03;;;15.17;100.00
71966;BME280;59836;52.132;5.442;2023-08-06T00:36:13;100459.94;;;15.16;100.00
71966;BME280;59836;52.132;5.442;2023-08-06T00:38:56;100469.25;;;15.15;100.00
71966;BME280;59836;52.132;5.442;2023-08-06T00:41:44;100472.81;;;15.16;100.00
71966;BME280;59836;52.132;5.442;2023-08-06T00:44:11;100463.81;;;15.15;100.00
71966;BME280;59836;52.132;5.442;2023-08-06T00:46:38;100459.16;;;15.16;100.00
71966;BME280;59836;52.132;5.442;2023-08-06T00:49:10;100467.34;;;15.16;100.00
71966;BME280;59836;52.132;5.442;2023-08-06T00:52:03;100470.09;;;15.16;100.00
71966;BME280;59836;52.132;5.442;2023-08-06T00:54:31;100467.66;;;15.14;100.00
71966;BME280;59836;52.132;5.442;2023-08-06T00:57:01;100470.09;;;15.16;100.00
71966;BME280;59836;52.132;5.442;2023-08-06T00:59:31;100462.19;;;15.14;100.00
71966;BME280;59836;52.132;5.442;2023-08-06T01:02:01;100468.75;;;15.13;100.00
71966;BME280;59836;52.132;5.442;2023-08-06T01:04:28;100464.13;;;15.14;100.00
71966;BME280;59836;52.132;5.442;2023-08-06T01:12:50;100452.09;;;15.15;100.00
71966;BME280;59836;52.132;5.442;2023-08-06T01:15:24;100450.97;;;15.16;100.00
71966;BME280;59836;52.132;5.442;2023-08-06T01:18:00;100452.09;;;15.15;100.00
71966;BME280;59836;52.132;5.442;2023-08-06T01:20:47;100459.16;;;15.16;100.00
71966;BME280;59836;52.132;5.442;2023-08-06T01:23:17;100454.50;;;15.16;100.00
71966;BME280;59836;52.132;5.442;2023-08-06T01:26:15;100456.72;;;15.14;100.00
71966;BME280;59836;52.132;5.442;2023-08-06T01:31:52;100465.25;;;15.13;100.00
71966;BME280;59836;52.132;5.442;2023-08-06T01:34:31;100460.56;;;15.13;100.00
71966;BME280;59836;52.132;5.442;2023-08-06T01:37:13;100460.56;;;15.13;100.00
71966;BME280;59836;52.132;5.442;2023-08-06T01:39:43;100464.13;;;15.14;100.00
71966;BME280;59836;52.132;5.442;2023-08-06T01:42:18;100458.16;;;15.12;100.00
71966;BME280;59836;52.132;5.442;2023-08-06T01:44:46;100459.56;;;15.09;100.00
71966;BME280;59836;52.132;5.442;2023-08-06T01:47:12;100457.66;;;15.10;100.00
71966;BME280;59836;52.132;5.442;2023-08-06T01:49:57;100460.41;;;15.10;100.00
71966;BME280;59836;52.132;5.442;2023-08-06T01:52:34;100462.50;;;15.13;100.00
71966;BME280;59836;52.132;5.442;2023-08-06T01:55:01;100461.41;;;15.14;100.00
71966;BME280;59836;52.132;5.442;2023-08-06T01:57:31;100467.47;;;15.11;100.00
71966;BME280;59836;52.132;5.442;2023-08-06T01:59:58;100463.63;;;15.12;100.00
71966;BME280;59836;52.132;5.442;2023-08-06T02:02:24;100464.75;;;15.11;100.00
71966;BME280;59836;52.132;5.442;2023-08-06T02:04:51;100465.25;;;15.13;100.00
71966;BME280;59836;52.132;5.442;2023-08-06T02:07:20;100464.41;;;15.12;100.00
71966;BME280;59836;52.132;5.442;2023-08-06T02:09:49;100466.84;;;15.14;100.00
71966;BME280;59836;52.132;5.442;2023-08-06T02:12:16;100469.88;;;15.12;100.00
71966;BME280;59836;52.132;5.442;2023-08-06T02:14:42;100477.28;;;15.12;100.00
71966;BME280;59836;52.132;5.442;2023-08-06T02:17:09;100469.09;;;15.12;100.00
71966;BME280;59836;52.132;5.442;2023-08-06T02:19:44;100471.31;;;15.10;100.00
71966;BME280;59836;52.132;5.442;2023-08-06T02:22:46;100463.13;;;15.10;100.00
71966;BME280;59836;52.132;5.442;2023-08-06T02:25:29;100462.63;;;15.08;100.00
71966;BME280;59836;52.132;5.442;2023-08-06T02:28:16;100466.47;;;15.07;100.00
71966;BME280;59836;52.132;5.442;2023-08-06T02:30:50;100465.34;;;15.08;100.00
71966;BME280;59836;52.132;5.442;2023-08-06T02:33:16;100462.63;;;15.08;100.00
71966;BME280;59836;52.132;5.442;2023-08-06T02:36:14;100462.63;;;15.08;100.00
71966;BME280;59836;52.132;5.442;2023-08-06T02:38:41;100462.63;;;15.08;100.00
71966;BME280;59836;52.132;5.442;2023-08-06T02:41:07;100458.28;;;15.07;100.00
71966;BME280;59836;52.132;5.442;2023-08-06T02:43:52;100462.44;;;15.04;100.00
71966;BME280;59836;52.132;5.442;2023-08-06T02:46:24;100456.16;;;15.03;100.00
71966;BME280;59836;52.132;5.442;2023-08-06T02:49:00;100457.78;;;15.04;100.00
71966;BME280;59836;52.132;5.442;2023-08-06T02:54:36;100456.66;;;15.05;100.00
71966;BME280;59836;52.132;5.442;2023-08-06T02:57:11;100451.72;;;15.08;100.00
71966;BME280;59836;52.132;5.442;2023-08-06T02:59:39;100452.00;;;15.06;100.00
71966;BME280;59836;52.132;5.442;2023-08-06T03:02:13;100448.16;;;15.07;100.00
71966;BME280;59836;52.132;5.442;2023-08-06T03:04:39;100443.50;;;15.08;100.00
71966;BME280;59836;52.132;5.442;2023-08-06T03:07:06;100442.41;;;15.09;100.00
71966;BME280;59836;52.132;5.442;2023-08-06T03:09:33;100436.13;;;15.08;100.00
71966;BME280;59836;52.132;5.442;2023-08-06T03:11:59;100436.94;;;15.09;100.00
71966;BME280;59836;52.132;5.442;2023-08-06T03:14:28;100437.72;;;15.09;100.00
71966;BME280;59836;52.132;5.442;2023-08-06T03:16:55;100446.75;;;15.10;100.00
71966;BME280;59836;52.132;5.442;2023-08-06T03:19:52;100442.41;;;15.09;100.00
71966;BME280;59836;52.132;5.442;2023-08-06T03:22:42;100437.22;;;15.07;100.00
71966;BME280;59836;52.132;5.442;2023-08-06T03:25:24;100436.13;;;15.08;100.00
71966;BME280;59836;52.132;5.442;2023-08-06T03:27:50;100445.91;;;15.09;100.00
71966;BME280;59836;52.132;5.442;2023-08-06T03:30:17;100443.50;;;15.08;100.00
71966;BME280;59836;52.132;5.442;2023-08-06T03:32:43;100436.13;;;15.08;100.00
71966;BME280;59836;52.132;5.442;2023-08-06T03:35:10;100441.56;;;15.08;100.00
71966;BME280;59836;52.132;5.442;2023-08-06T03:37:36;100441.28;;;15.10;100.00
71966;BME280;59836;52.132;5.442;2023-08-06T03:40:23;100442.06;;;15.10;100.00
71966;BME280;59836;52.132;5.442;2023-08-06T03:42:49;100443.19;;;15.09;100.00
71966;BME280;59836;52.132;5.442;2023-08-06T03:45:23;100444.31;;;15.08;100.00
71966;BME280;59836;52.132;5.442;2023-08-06T03:47:50;100441.56;;;15.08;100.00
71966;BME280;59836;52.132;5.442;2023-08-06T03:50:24;100439.66;;;15.09;100.00
71966;BME280;59836;52.132;5.442;2023-08-06T03:52:51;100446.25;;;15.08;100.00
71966;BME280;59836;52.132;5.442;2023-08-06T03:55:17;100451.22;;;15.05;100.00
71966;BME280;59836;52.132;5.442;2023-08-06T03:57:57;100445.75;;;15.05;100.00
71966;BME280;59836;52.132;5.442;2023-08-06T04:00:59;100452.31;;;15.04;100.00
71966;BME280;59836;52.132;5.442;2023-08-06T04:03:36;100447.66;;;15.05;100.00
71966;BME280;59836;52.132;5.442;2023-08-06T04:06:23;100453.94;;;15.05;100.00
71966;BME280;59836;52.132;5.442;2023-08-06T04:09:06;100443.00;;;15.05;100.00
71966;BME280;59836;52.132;5.442;2023-08-06T04:11:32;100443.00;;;15.05;100.00
71966;BME280;59836;52.132;5.442;2023-08-06T04:14:02;100441.41;;;15.04;100.00
71966;BME280;59836;52.132;5.442;2023-08-06T04:16:34;100441.41;;;15.04;100.00
71966;BME280;59836;52.132;5.442;2023-08-06T04:19:07;100441.41;;;15.04;100.00
71966;BME280;59836;52.132;5.442;2023-08-06T04:24:59;100442.81;;;15.02;100.00
71966;BME280;59836;52.132;5.442;2023-08-06T04:30:44;100445.88;;;15.00;100.00
71966;BME280;59836;52.132;5.442;2023-08-06T04:33:14;100454.56;;;15.02;100.00
71966;BME280;59836;52.132;5.442;2023-08-06T04:35:42;100449.88;;;15.03;100.00
71966;BME280;59836;52.132;5.442;2023-08-06T04:38:08;100456.16;;;15.03;100.00
71966;BME280;59836;52.132;5.442;2023-08-06T04:40:42;100463.88;;;15.01;100.00
71966;BME280;59836;52.132;5.442;2023-08-06T04:43:08;100467.09;;;15.03;100.00
71966;BME280;59836;52.132;5.442;2023-08-06T04:45:35;100463.25;;;15.04;100.00
71966;BME280;59836;52.132;5.442;2023-08-06T04:48:08;100468.09;;;15.08;100.00
71966;BME280;59836;52.132;5.442;2023-08-06T04:50:35;100467.78;;;15.09;100.00
71966;BME280;59836;52.132;5.442;2023-08-06T04:53:01;100471.31;;;15.10;100.00
71966;BME280;59836;52.132;5.442;2023-08-06T04:55:32;100472.94;;;15.11;100.00
71966;BME280;59836;52.132;5.442;2023-08-06T04:58:17;100462.00;;;15.11;100.00
71966;BME280;59836;52.132;5.442;2023-08-06T05:00:43;100467.66;;;15.14;100.00
71966;BME280;59836;52.132;5.442;2023-08-06T05:03:24;100475.06;;;15.14;100.00
71966;BME280;59836;52.132;5.442;2023-08-06T05:05:51;100477.28;;;15.12;100.00
71966;BME280;59836;52.132;5.442;2023-08-06T05:08:44;100474.22;;;15.13;100.00
71966;BME280;59836;52.132;5.442;2023-08-06T05:11:21;100480.19;;;15.15;100.00
71966;BME280;59836;52.132;5.442;2023-08-06T05:13:49;100480.19;;;15.15;100.00
71966;BME280;59836;52.132;5.442;2023-08-06T05:16:32;100484.88;;;15.15;100.00
71966;BME280;59836;52.132;5.442;2023-08-06T05:19:18;100485.47;;;15.12;100.00
71966;BME280;59836;52.132;5.442;2023-08-06T05:22:05;100495.28;;;15.13;100.00
71966;BME280;59836;52.132;5.442;2023-08-06T05:24:31;100494.16;;;15.14;100.00
71966;BME280;59836;52.132;5.442;2023-08-06T05:27:01;100500.44;;;15.14;100.00
71966;BME280;59836;52.132;5.442;2023-08-06T05:29:28;100503.66;;;15.16;100.00
71966;BME280;59836;52.132;5.442;2023-08-06T05:32:05;100508.31;;;15.16;100.00
71966;BME280;59836;52.132;5.442;2023-08-06T05:34:36;100508.31;;;15.16;100.00
71966;BME280;59836;52.132;5.442;2023-08-06T05:37:34;100508.94;;;15.13;100.00
71966;BME280;59836;52.132;5.442;2023-08-06T05:40:17;100507.81;;;15.14;100.00
71966;BME280;59836;52.132;5.442;2023-08-06T05:42:45;100513.78;;;15.16;100.00
71966;BME280;59836;52.132;5.442;2023-08-06T05:45:12;100516.53;;;15.16;100.00
71966;BME280;59836;52.132;5.442;2023-08-06T05:47:53;100520.88;;;15.17;100.00
71966;BME280;59836;52.132;5.442;2023-08-06T05:50:21;100527.94;;;15.18;100.00
71966;BME280;59836;52.132;5.442;2023-08-06T05:53:04;100524.09;;;15.19;100.00
71966;BME280;59836;52.132;5.442;2023-08-06T05:55:31;100521.03;;;15.20;100.00
71966;BME280;59836;52.132;5.442;2023-08-06T05:57:58;100526.34;;;15.17;100.00
71966;BME280;59836;52.132;5.442;2023-08-06T06:00:31;100527.94;;;15.18;100.00
71966;BME280;59836;52.132;5.442;2023-08-06T06:02:57;100526.34;;;15.17;100.00
71966;BME280;59836;52.132;5.442;2023-08-06T06:05:24;100530.69;;;15.18;100.00
71966;BME280;59836;52.132;5.442;2023-08-06T06:07:57;100536.44;;;15.16;100.00
71966;BME280;59836;52.132;5.442;2023-08-06T06:10:39;100535.66;;;15.16;100.00
71966;BME280;59836;52.132;5.442;2023-08-06T06:16:18;100545.34;;;15.22;100.00
71966;BME280;59836;52.132;5.442;2023-08-06T06:18:57;100557.06;;;15.23;100.00
71966;BME280;59836;52.132;5.442;2023-08-06T06:21:36;100554.66;;;15.21;100.00
71966;BME280;59836;52.132;5.442;2023-08-06T06:24:05;100561.72;;;15.22;100.00
71966;BME280;59836;52.132;5.442;2023-08-06T06:26:32;100548.56;;;15.24;100.00
71966;BME280;59836;52.132;5.442;2023-08-06T06:28:59;100558.38;;;15.25;100.00
71966;BME280;59836;52.132;5.442;2023-08-06T06:31:27;100561.91;;;15.26;100.00
71966;BME280;59836;52.132;5.442;2023-08-06T06:34:03;100563.53;;;15.27;100.00
71966;BME280;59836;52.132;5.442;2023-08-06T06:36:34;100565.47;;;15.26;100.00
71966;BME280;59836;52.132;5.442;2023-08-06T06:39:01;100568.69;;;15.28;100.00
71966;BME280;59836;52.132;5.442;2023-08-06T06:41:27;100567.59;;;15.29;100.00
71966;BME280;59836;52.132;5.442;2023-08-06T06:44:03;100569.81;;;15.27;100.00
71966;BME280;59836;52.132;5.442;2023-08-06T06:46:29;100569.81;;;15.27;100.00
71966;BME280;59836;52.132;5.442;2023-08-06T06:49:01;100575.28;;;15.27;100.00
71966;BME280;59836;52.132;5.442;2023-08-06T06:51:31;100575.28;;;15.27;100.00
71966;BME280;59836;52.132;5.442;2023-08-06T06:54:03;100583.16;;;15.29;100.00
71966;BME280;59836;52.132;5.442;2023-08-06T06:56:46;100588.44;;;15.25;100.00
71966;BME280;59836;52.132;5.442;2023-08-06T06:59:29;100579.91;;;15.27;100.00
71966;BME280;59836;52.132;5.442;2023-08-06T07:01:56;100582.97;;;15.25;100.00
71966;BME280;59836;52.132;5.442;2023-08-06T07:04:49;100585.19;;;15.23;100.00
71966;BME280;59836;52.132;5.442;2023-08-06T07:07:16;100589.16;;;15.17;100.00
71966;BME280;59836;52.132;5.442;2023-08-06T07:09:44;100588.03;;;15.18;100.00
71966;BME280;59836;52.132;5.442;2023-08-06T07:12:35;100584.69;;;15.21;100.00
71966;BME280;59836;52.132;5.442;2023-08-06T07:15:06;100587.94;;;15.23;100.00
71966;BME280;59836;52.132;5.442;2023-08-06T07:17:33;100578.91;;;15.23;100.00
71966;BME280;59836;52.132;5.442;2023-08-06T07:20:03;100582.97;;;15.25;100.00
71966;BME280;59836;52.132;5.442;2023-08-06T07:22:30;100580.75;;;15.27;100.00
71966;BME280;59836;52.132;5.442;2023-08-06T07:25:03;100587.81;;;15.28;100.00
71966;BME280;59836;52.132;5.442;2023-08-06T07:27:32;100594.91;;;15.29;100.00
71966;BME280;59836;52.132;5.442;2023-08-06T07:30:07;100587.22;;;15.31;100.00
71966;BME280;59836;52.132;5.442;2023-08-06T07:32:43;100593.47;;;15.32;100.00
71966;BME280;59836;52.132;5.442;2023-08-06T07:35:11;100589.63;;;15.33;100.00
71966;BME280;59836;52.132;5.442;2023-08-06T07:37:40;100598.31;;;15.35;100.00
71966;BME280;59836;52.132;5.442;2023-08-06T07:40:07;100596.88;;;15.38;100.00
71966;BME280;59836;52.132;5.442;2023-08-06T07:42:42;100594.66;;;15.40;100.00
71966;BME280;59836;52.132;5.442;2023-08-06T07:45:20;100596.75;;;15.43;100.00
71966;BME280;59836;52.132;5.442;2023-08-06T07:47:54;100601.59;;;15.46;100.00
71966;BME280;59836;52.132;5.442;2023-08-06T07:50:21;100600.00;;;15.45;100.00
71966;BME280;59836;52.132;5.442;2023-08-06T07:52:53;100598.59;;;15.47;100.00
71966;BME280;59836;52.132;5.442;2023-08-06T07:55:37;100602.72;;;15.45;100.00
71966;BME280;59836;52.132;5.442;2023-08-06T07:58:04;100600.50;;;15.47;100.00
71966;BME280;59836;52.132;5.442;2023-08-06T08:00:30;100599.19;;;15.44;100.00
71966;BME280;59836;52.132;5.442;2023-08-06T08:02:57;100615.09;;;15.42;100.00
71966;BME280;59836;52.132;5.442;2023-08-06T08:05:24;100597.09;;;15.41;100.00
71966;BME280;59836;52.132;5.442;2023-08-06T08:07:50;100600.94;;;15.40;100.00
71966;BME280;59836;52.132;5.442;2023-08-06T08:10:37;100600.09;;;15.40;100.00
71966;BME280;59836;52.132;5.442;2023-08-06T08:13:18;100608.81;;;15.42;100.00
71966;BME280;59836;52.132;5.442;2023-08-06T08:15:49;100609.41;;;15.39;100.00
71966;BME280;59836;52.132;5.442;2023-08-06T08:18:20;100611.03;;;15.40;100.00
71966;BME280;59836;52.132;5.442;2023-08-06T08:20:49;100615.88;;;15.43;100.00
71966;BME280;59836;52.132;5.442;2023-08-06T08:23:21;100612.03;;;15.44;100.00
71966;BME280;59836;52.132;5.442;2023-08-06T08:25:47;100611.88;;;15.40;100.00
71966;BME280;59836;52.132;5.442;2023-08-06T08:28:35;100620.56;;;15.42;100.00
71966;BME280;59836;52.132;5.442;2023-08-06T08:31:15;100618.63;;;15.43;100.00
71966;BME280;59836;52.132;5.442;2023-08-06T08:33:47;100619.44;;;15.43;100.00
71966;BME280;59836;52.132;5.442;2023-08-06T08:36:25;100613.38;;;15.46;100.00
71966;BME280;59836;52.132;5.442;2023-08-06T08:39:03;100619.34;;;15.48;100.00
71966;BME280;59836;52.132;5.442;2023-08-06T08:41:31;100631.06;;;15.49;100.00
71966;BME280;59836;52.132;5.442;2023-08-06T08:44:02;100623.47;;;15.46;100.00
71966;BME280;59836;52.132;5.442;2023-08-06T08:46:55;100630.56;;;15.47;100.00
71966;BME280;59836;52.132;5.442;2023-08-06T08:49:33;100635.84;;;15.43;100.00
71966;BME280;59836;52.132;5.442;2023-08-06T08:52:02;100632.91;;;15.40;100.00
71966;BME280;59836;52.132;5.442;2023-08-06T08:54:38;100640.13;;;15.35;100.00
71966;BME280;59836;52.132;5.442;2023-08-06T08:57:05;100642.34;;;15.33;100.00
71966;BME280;59836;52.132;5.442;2023-08-06T08:59:56;100640.75;;;15.32;100.00
71966;BME280;59836;52.132;5.442;2023-08-06T09:02:25;100646.50;;;15.31;100.00
71966;BME280;59836;52.132;5.442;2023-08-06T09:04:58;100649.56;;;15.29;100.00
71966;BME280;59836;52.132;5.442;2023-08-06T09:07:48;100650.34;;;15.30;100.00
71966;BME280;59836;52.132;5.442;2023-08-06T09:10:17;100656.25;;;15.23;100.00
71966;BME280;59836;52.132;5.442;2023-08-06T09:12:49;100658.47;;;15.21;100.00
71966;BME280;59836;52.132;5.442;2023-08-06T09:15:24;100657.63;;;15.20;100.00
71966;BME280;59836;52.132;5.442;2023-08-06T09:17:56;100668.56;;;15.20;100.00
71966;BME280;59836;52.132;5.442;2023-08-06T09:20:26;100665.34;;;15.18;100.00
71966;BME280;59836;52.132;5.442;2023-08-06T09:23:18;100673.84;;;15.17;100.00
71966;BME280;59836;52.132;5.442;2023-08-06T09:29:35;100669.00;;;15.14;100.00
71966;BME280;59836;52.132;5.442;2023-08-06T09:32:06;100681.53;;;15.15;100.00
71966;BME280;59836;52.132;5.442;2023-08-06T09:34:33;100679.09;;;15.13;100.00
71966;BME280;59836;52.132;5.442;2023-08-06T09:36:59;100691.97;;;15.13;100.00
71966;BME280;59836;52.132;5.442;2023-08-06T09:39:27;100689.22;;;15.13;100.00
71966;BME280;59836;52.132;5.442;2023-08-06T09:41:58;100686.50;;;15.13;100.00
71966;BME280;59836;52.132;5.442;2023-08-06T09:44:26;100699.84;;;15.14;100.00
71966;BME280;59836;52.132;5.442;2023-08-06T09:46:55;100697.09;;;15.14;100.00
71966;BME280;59836;52.132;5.442;2023-08-06T09:52:00;100711.06;;;15.13;100.00
71966;BME280;59836;52.132;5.442;2023-08-06T09:54:35;100710.56;;;15.11;100.00
71966;BME280;59836;52.132;5.442;2023-08-06T09:57:03;100702.38;;;15.11;100.00
71966;BME280;59836;52.132;5.442;2023-08-06T09:59:30;100709.75;;;15.10;100.00
71966;BME280;59836;52.132;5.442;2023-08-06T10:01:58;100713.59;;;15.09;100.00
71966;BME280;59836;52.132;5.442;2023-08-06T10:04:25;100712.81;;;15.09;100.00
71966;BME280;59836;52.132;5.442;2023-08-06T10:07:13;100725.63;;;15.08;100.00
71966;BME280;59836;52.132;5.442;2023-08-06T10:09:39;100715.53;;;15.09;100.00
71966;BME280;59836;52.132;5.442;2023-08-06T10:12:37;100729.69;;;15.11;100.00
71966;BME280;59836;52.132;5.442;2023-08-06T10:15:11;100726.97;;;15.11;100.00
71966;BME280;59836;52.132;5.442;2023-08-06T10:17:39;100722.00;;;15.13;100.00
71966;BME280;59836;52.132;5.442;2023-08-06T10:20:20;100726.66;;;15.12;100.00
71966;BME280;59836;52.132;5.442;2023-08-06T10:23:09;100725.25;;;15.15;100.00
71966;BME280;59836;52.132;5.442;2023-08-06T10:25:42;100729.09;;;15.14;100.00
71966;BME280;59836;52.132;5.442;2023-08-06T10:28:18;100734.56;;;15.14;100.00
71966;BME280;59836;52.132;5.442;2023-08-06T10:31:00;100738.91;;;15.15;100.00
71966;BME280;59836;52.132;5.442;2023-08-06T10:33:40;100730.50;;;15.11;100.00
71966;BME280;59836;52.132;5.442;2023-08-06T10:38:58;100733.44;;;15.15;100.00
71966;BME280;59836;52.132;5.442;2023-08-06T10:41:29;100733.94;;;15.17;100.00
71966;BME280;59836;52.132;5.442;2023-08-06T10:44:27;100732.00;;;15.17;100.00
71966;BME280;59836;52.132;5.442;2023-08-06T10:47:26;100733.34;;;15.20;100.00
71966;BME280;59836;52.132;5.442;2023-08-06T10:50:25;100736.56;;;15.22;100.00
71966;BME280;59836;52.132;5.442;2023-08-06T10:53:05;100739.81;;;15.24;100.00
71966;BME280;59836;52.132;5.442;2023-08-06T10:55:35;100730.50;;;15.25;100.00
71966;BME280;59836;52.132;5.442;2023-08-06T10:58:15;100739.50;;;15.26;100.00
71966;BME280;59836;52.132;5.442;2023-08-06T11:00:42;100750.44;;;15.26;100.00
71966;BME280;59836;52.132;5.442;2023-08-06T11:03:16;100745.28;;;15.24;100.00
71966;BME280;59836;52.132;5.442;2023-08-06T11:13:52;100751.34;;;15.21;100.00
71966;BME280;59836;52.132;5.442;2023-08-06T11:16:41;100755.19;;;15.20;100.00
71966;BME280;59836;52.132;5.442;2023-08-06T11:19:19;100762.88;;;15.18;100.00
71966;BME280;59836;52.132;5.442;2023-08-06T11:26:33;100767.25;;;15.19;100.00
71966;BME280;59836;52.132;5.442;2023-08-06T11:29:22;100771.06;;;15.18;100.00
71966;BME280;59836;52.132;5.442;2023-08-06T11:32:04;100762.06;;;15.17;100.00
71966;BME280;59836;52.132;5.442;2023-08-06T11:34:35;100774.09;;;15.16;100.00
71966;BME280;59836;52.132;5.442;2023-08-06T11:37:05;100772.47;;;15.15;100.00
71966;BME280;59836;52.132;5.442;2023-08-06T11:43:06;100782.09;;;15.13;100.00
71966;BME280;59836;52.132;5.442;2023-08-06T11:48:54;100788.25;;;15.04;100.00
71966;BME280;59836;52.132;5.442;2023-08-06T11:51:32;100785.53;;;15.04;100.00
71966;BME280;59836;52.132;5.442;2023-08-06T11:53:59;100783.09;;;15.03;100.00
71966;BME280;59836;52.132;5.442;2023-08-06T11:56:27;100780.97;;;15.00;100.00
71966;BME280;59836;52.132;5.442;2023-08-06T11:58:54;100785.63;;;14.99;100.00
71966;BME280;59836;52.132;5.442;2023-08-06T12:01:21;100782.88;;;14.99;100.00
71966;BME280;59836;52.132;5.442;2023-08-06T12:29:00;100810.72;;;15.01;100.00
71966;BME280;59836;52.132;5.442;2023-08-06T12:31:28;100815.06;;;15.02;100.00
71966;BME280;59836;52.132;5.442;2023-08-06T12:33:55;100809.00;;;15.05;100.00
71966;BME280;59836;52.132;5.442;2023-08-06T12:36:21;100809.50;;;15.08;100.00
71966;BME280;59836;52.132;5.442;2023-08-06T12:38:54;100817.72;;;15.08;100.00
71966;BME280;59836;52.132;5.442;2023-08-06T12:41:22;100816.59;;;15.09;100.00
71966;BME280;59836;52.132;5.442;2023-08-06T12:43:50;100820.63;;;15.11;100.00
71966;BME280;59836;52.132;5.442;2023-08-06T12:46:39;100826.09;;;15.11;100.00
71966;BME280;59836;52.132;5.442;2023-08-06T12:49:07;100825.81;;;15.13;100.00
71966;BME280;59836;52.132;5.442;2023-08-06T12:51:34;100836.13;;;15.16;100.00
71966;BME280;59836;52.132;5.442;2023-08-06T12:54:00;100834.19;;;15.16;100.00
71966;BME280;59836;52.132;5.442;2023-08-06T12:56:27;100839.38;;;15.18;100.00
71966;BME280;59836;52.132;5.442;2023-08-06T13:02:19;100851.09;;;15.18;100.00
71966;BME280;59836;52.132;5.442;2023-08-06T13:05:10;100844.25;;;15.21;100.00
71966;BME280;59836;52.132;5.442;2023-08-06T13:07:40;100850.22;;;15.23;100.00
71966;BME280;59836;52.132;5.442;2023-08-06T13:10:07;100850.50;;;15.22;100.00
71966;BME280;59836;52.132;5.442;2023-08-06T13:12:39;100858.41;;;15.23;100.00
71966;BME280;59836;52.132;5.442;2023-08-06T13:15:13;100860.53;;;15.26;100.00
71966;BME280;59836;52.132;5.442;2023-08-06T13:17:44;100860.22;;;15.28;100.00
71966;BME280;59836;52.132;5.442;2023-08-06T13:20:43;100861.06;;;15.28;100.00
71966;BME280;59836;52.132;5.442;2023-08-06T13:23:18;100860.75;;;15.30;100.00
71966;BME280;59836;52.132;5.442;2023-08-06T13:25:45;100861.25;;;15.32;100.00
71966;BME280;59836;52.132;5.442;2023-08-06T13:28:12;100867.22;;;15.34;100.00
71966;BME280;59836;52.132;5.442;2023-08-06T13:30:40;100864.19;;;15.35;100.00
71966;BME280;59836;52.132;5.442;2023-08-06T13:33:09;100866.94;;;15.35;100.00
71966;BME280;59836;52.132;5.442;2023-08-06T13:35:35;100871.75;;;15.39;100.00
71966;BME280;59836;52.132;5.442;2023-08-06T13:38:03;100869.53;;;15.41;100.00
71966;BME280;59836;52.132;5.442;2023-08-06T13:40:53;100869.53;;;15.41;100.00
71966;BME280;59836;52.132;5.442;2023-08-06T13:43:19;100867.31;;;15.43;100.00
71966;BME280;59836;52.132;5.442;2023-08-06T13:45:46;100873.00;;;15.46;100.00
71966;BME280;59836;52.132;5.442;2023-08-06T13:48:12;100877.03;;;15.49;100.00
71966;BME280;59836;52.132;5.442;2023-08-06T13:50:39;100880.88;;;15.48;100.00
71966;BME280;59836;52.132;5.442;2023-08-06T13:53:06;100891.22;;;15.51;100.00
71966;BME280;59836;52.132;5.442;2023-08-06T13:55:33;100891.22;;;15.51;100.00
71966;BME280;59836;52.132;5.442;2023-08-06T13:57:59;100884.66;;;15.52;100.00
71966;BME280;59836;52.132;5.442;2023-08-06T14:00:45;100892.25;;;15.55;100.00
71966;BME280;59836;52.132;5.442;2023-08-06T14:03:12;100890.34;;;15.56;100.00
71966;BME280;59836;52.132;5.442;2023-08-06T14:05:52;100888.91;;;15.58;100.00
71966;BME280;59836;52.132;5.442;2023-08-06T14:08:22;100892.16;;;15.60;100.00
71966;BME280;59836;52.132;5.442;2023-08-06T14:10:50;100890.22;;;15.61;100.00
71966;BME280;59836;52.132;5.442;2023-08-06T14:13:17;100893.75;;;15.61;100.00
71966;BME280;59836;52.132;5.442;2023-08-06T14:15:57;100891.03;;;15.61;100.00
71966;BME280;59836;52.132;5.442;2023-08-06T14:18:54;100894.28;;;15.63;100.00
71966;BME280;59836;52.132;5.442;2023-08-06T14:21:26;100902.19;;;15.65;100.00
71966;BME280;59836;52.132;5.442;2023-08-06T14:23:53;100907.34;;;15.67;100.00
71966;BME280;59836;52.132;5.442;2023-08-06T14:26:19;100908.69;;;15.69;100.00
71966;BME280;59836;52.132;5.442;2023-08-06T14:28:46;100919.28;;;15.71;100.00
71966;BME280;59836;52.132;5.442;2023-08-06T14:31:13;100917.06;;;15.73;100.00